PSCTRI-CITIES
METARs for airports near PSC, sorted by distance:
N 0 nm 410' KPSC 222253Z 35007KT 10SM CLR 05/00 A3058
W 8 nm 394' KRLD 222335Z 34005KT 10SM CLR 03/00 A3059
S 26 nm 644' KHRI 222253Z 19003KT 7SM BKN004 02/01 A3055
S 36 nm 1496' KPDT 222253Z 30007KT 10SM CLR 07/03 A3050
E 36 nm 1194' KALW 222327Z 00000KT M1/4SM FG VV001 01/01 A3053
N 57 nm 1188' KMWH 222252Z 04003KT 10SM OVC006 01/M02 A3056
W 61 nm 1098' KYKM 222253Z 00000KT 10SM CLR 04/M03 A3053
N 64 nm 1276' KEPH 222253Z 01010KT 10SM BKN006 M01/M03 A3055
NW 74 nm 1763' KELN 222253Z 00000KT 10SM CLR 00/M05 A3051
SE 74 nm 2717' KLGD 222256Z 00000KT 10SM CLR 04/M01 A3047
NW 81 nm 1248' KEAT 222255Z 09005KT 10SM CLR M02/M03 A3055
E 87 nm 1442' KLWS 222256Z 00000KT 7SM OVC005 01/M01 A3054
E 87 nm 2566' KPUW 222253Z 09005KT 10SM CLR 04/M01 A3050
SW 93 nm 246' KDLS 222327Z 20003KT 10SM OVC009 04/01 A3056
SE 95 nm 4126' KJSY 222335Z 10SM CLR 00/M06 A3045
TAFs for airports near PSC, sorted by distance:
N 0 nm 410' KPSC TAF KPSC 222320Z 2300/2324 36004KT P6SM SCT010
  FM230300 VRB03KT 4SM BR SCT002
  FM230600 VRB03KT 1/2SM FZFG BKN002
  FM231900 VRB02KT 4SM BR BKN005
  FM232100 35005KT 6SM BR BKN008
S 36 nm 1496' KPDT TAF KPDT 222320Z 2300/2324 VRB05KT P6SM SCT200
  FM230600 33004KT 6SM BR FEW006 SCT200
  TEMPO 2306/2308 1SM BR BKN006
  FM230800 VRB03KT 2SM BR SCT006 SCT200
  FM231000 VRB02KT 1/2SM FZFG VV002
  FM231900 31003KT 6SM BR SCT250
E 36 nm 1194' KALW TAF KALW 222320Z 2300/2324 VRB04KT 3SM BR SCT002
  TEMPO 2300/2302 1/2SM FG VV001
  FM230200 VRB03KT 1/2SM FZFG VV002
  FM232100 22003KT 2SM BR BKN006
N 57 nm 1188' KMWH TAF KMWH 222339Z 2300/2324 01004KT 1/2SM FG OVC003
  FM230200 36004KT 1/4SM FG OVC003
  FM232000 00000KT 3SM BR OVC003
W 61 nm 1098' KYKM TAF KYKM 222320Z 2300/2324 VRB03KT P6SM FEW250
  FM230800 28003KT 4SM BR SCT006
  FM231400 29003KT 1SM BR BKN006
  FM232000 VRB03KT 6SM BR BKN025
NW 81 nm 1248' KEAT TAF KEAT 222339Z 2300/2324 VRB03KT 1/4SM FG BKN250
  FM231500 00000KT 2SM BR BKN001
  FM231700 VRB03KT 1/4SM FG BKN003
  FM231800 VRB03KT 5SM BR BKN003
  FM232000 12004KT 6SM BR BKN250
E 87 nm 1442' KLWS TAF KLWS 222339Z 2300/2324 26004KT 6SM BR BKN003
  FM230600 12004KT 6SM BR BKN015
  FM231200 12004KT 6SM BR BKN250
  FM231400 VRB03KT 6SM BR BKN015
  FM232100 28005KT P6SM BKN250
E 87 nm 2566' KPUW TAF KPUW 222339Z 2300/2324 13004KT P6SM FEW250
  FM231500 13007KT 6SM BR SCT250
SW 93 nm 246' KDLS TAF KDLS 222320Z 2300/2324 VRB03KT P6SM OVC011
  FM230600 10003KT 3SM BR OVC008
  FM230900 10003KT 1SM BR OVC005
  FM231700 VRB03KT 3SM BR OVC008
  FM232100 VRB03KT 6SM BR BKN015

Shortcut to this page: http://wxbay.com.

Data may contain errors.